Time;durP1;ratioP1;P1;durP2;ratioP2;P2;SDS_P1;SDS_P2;PMS_P1;PMS_P2;Temp;Humidity;BMP_temperature;BMP_pressure;BME280_temperature;BME280_humidity;BME280_pressure;Samples;Min_cycle;Max_cycle;Signal;HPM_P1;HPM_P2
2022/12/10 00:02:10;;;;;;;1.55;0.77;;;;;;;13.47;44.01;91924.44;5059980;28;20066;-91
2022/12/10 00:04:35;;;;;;;1.02;0.80;;;;;;;13.47;44.09;91927.16;5072852;28;20043;-93
2022/12/10 00:07:02;;;;;;;1.20;0.70;;;;;;;13.42;44.33;91923.28;5089368;28;20044;-88
2022/12/10 00:09:27;;;;;;;0.85;0.75;;;;;;;13.46;43.98;91922.97;5069819;28;20024;-88
2022/12/10 00:11:53;;;;;;;1.17;0.90;;;;;;;13.49;43.96;91917.25;5054659;28;20041;-89
2022/12/10 00:14:18;;;;;;;0.70;0.70;;;;;;;13.46;43.95;91915.56;5050907;28;20062;-90
2022/12/10 00:16:43;;;;;;;0.95;0.57;;;;;;;13.44;44.17;91920.03;5049354;28;20268;-91
2022/12/10 00:19:09;;;;;;;0.80;0.80;;;;;;;13.42;44.17;91922.56;5070526;28;20094;-91
2022/12/10 00:21:35;;;;;;;1.05;0.73;;;;;;;13.48;44.36;91907.66;5084241;28;20048;-89
2022/12/10 00:24:00;;;;;;;1.00;0.90;;;;;;;13.45;44.14;91895.09;5068949;28;20047;-94
2022/12/10 00:26:34;;;;;;;1.45;1.00;;;;;;;13.45;44.21;91894.38;5048978;28;20214;-93
2022/12/10 00:29:00;;;;;;;1.52;1.00;;;;;;;13.46;44.32;91893.84;5052397;28;20041;-92
2022/12/10 00:31:30;;;;;;;2.08;1.00;;;;;;;13.48;44.10;91890.63;5061888;28;20063;-92
2022/12/10 00:33:56;;;;;;;1.07;0.80;;;;;;;13.47;44.02;91906.19;5046040;28;20039;-91
2022/12/10 00:36:27;;;;;;;0.85;0.70;;;;;;;13.47;44.29;91897.31;5063186;28;21078;-89
2022/12/10 00:38:53;;;;;;;1.15;0.70;;;;;;;13.47;44.13;91898.03;5053887;28;20040;-91
2022/12/10 00:41:18;;;;;;;1.00;0.80;;;;;;;13.46;43.97;91903.97;5063488;28;20043;-89
2022/12/10 00:43:44;;;;;;;1.20;1.02;;;;;;;13.46;44.05;91899.28;5051953;28;20040;-89
2022/12/10 00:46:10;;;;;;;1.02;0.88;;;;;;;13.45;44.03;91905.22;5058762;28;20093;-89
2022/12/10 00:48:35;;;;;;;0.88;0.70;;;;;;;13.44;44.29;91903.75;5052410;28;20140;-91
2022/12/10 00:51:05;;;;;;;1.02;0.75;;;;;;;13.51;44.25;91916.75;5054965;28;20109;-89
2022/12/10 00:53:31;;;;;;;0.77;0.77;;;;;;;13.47;44.24;91914.31;5051342;28;20032;-93
2022/12/10 00:55:57;;;;;;;1.27;0.85;;;;;;;13.46;44.15;91917.56;5035459;28;20047;-88
2022/12/10 00:58:24;;;;;;;0.88;0.70;;;;;;;13.46;44.05;91910.13;5039322;28;20040;-90
2022/12/10 01:00:49;;;;;;;1.25;0.90;;;;;;;13.42;44.04;91923.28;5067737;28;20803;-89
2022/12/10 01:03:15;;;;;;;1.50;1.02;;;;;;;13.44;44.06;91912.63;5068820;28;20055;-92
2022/12/10 01:05:40;;;;;;;1.05;0.70;;;;;;;13.46;43.87;91910.13;5036836;28;20040;-91
2022/12/10 01:08:05;;;;;;;0.88;0.70;;;;;;;13.49;44.04;91911.81;5068596;28;20044;-90
2022/12/10 01:10:31;;;;;;;1.08;0.73;;;;;;;13.43;44.11;91913.88;5055300;28;20052;-92
2022/12/10 01:12:56;;;;;;;1.60;0.93;;;;;;;13.45;43.97;91922.25;5068187;28;20037;-93
2022/12/10 01:15:21;;;;;;;1.08;0.93;;;;;;;13.46;44.36;91923.72;5068219;28;20071;-87
2022/12/10 01:17:47;;;;;;;0.80;0.70;;;;;;;13.42;43.97;91926.00;5052505;28;20036;-92
2022/12/10 01:20:12;;;;;;;1.17;0.80;;;;;;;13.45;43.82;91926.94;5051487;28;20044;-92
2022/12/10 01:22:38;;;;;;;2.15;0.90;;;;;;;13.45;43.88;91926.94;5052251;28;20047;-91
2022/12/10 01:25:03;;;;;;;1.58;1.20;;;;;;;13.42;43.81;91930.69;5045165;28;20043;-87
2022/12/10 01:27:29;;;;;;;1.17;0.80;;;;;;;13.46;44.15;91934.56;5036423;28;20517;-92
2022/12/10 01:29:54;;;;;;;1.25;0.95;;;;;;;13.42;44.21;91945.00;5052715;28;20036;-90
2022/12/10 01:32:20;;;;;;;1.40;0.82;;;;;;;13.42;44.36;91947.72;5073128;28;20032;-91
2022/12/10 01:34:45;;;;;;;1.25;0.82;;;;;;;13.47;44.20;91946.91;5072761;28;20043;-93
2022/12/10 01:37:10;;;;;;;0.88;0.80;;;;;;;13.41;44.61;91948.22;5071020;28;20401;-90
2022/12/10 01:39:36;;;;;;;0.80;0.68;;;;;;;13.43;44.38;91946.44;5072813;28;20670;-87
2022/12/10 01:42:01;;;;;;;1.77;0.85;;;;;;;13.47;43.92;91951.59;5055613;28;20036;-90
2022/12/10 01:44:27;;;;;;;1.15;0.90;;;;;;;13.48;44.58;91961.19;5060912;28;20047;-92
2022/12/10 01:46:54;;;;;;;1.48;0.90;;;;;;;13.41;44.42;91959.09;5079498;28;20051;-90
2022/12/10 01:49:35;;;;;;;1.00;0.88;;;;;;;13.43;43.90;91964.72;5040294;28;20131;-88
2022/12/10 01:52:00;;;;;;;0.70;0.70;;;;;;;13.43;44.53;91967.44;5070254;28;20468;-90
2022/12/10 01:54:34;;;;;;;1.33;1.00;;;;;;;13.44;44.22;91975.06;5055369;28;20111;-93
2022/12/10 01:57:04;;;;;;;1.20;0.88;;;;;;;13.45;44.37;91970.38;5085320;28;20542;-91
2022/12/10 01:59:29;;;;;;;1.33;0.90;;;;;;;13.46;44.10;91979.97;5076307;28;20066;-91
2022/12/10 02:02:26;;;;;;;0.88;0.88;;;;;;;13.47;44.10;91973.31;5074595;28;20040;-88
2022/12/10 02:05:11;;;;;;;1.40;1.00;;;;;;;13.41;43.97;91970.69;5085727;28;20427;-93
2022/12/10 02:07:54;;;;;;;1.15;0.75;;;;;;;13.44;44.01;91961.50;5057119;28;20457;-91
2022/12/10 02:10:25;;;;;;;0.95;0.75;;;;;;;13.43;44.54;91962.00;5091463;28;20036;-90
2022/12/10 02:13:02;;;;;;;1.05;0.70;;;;;;;13.42;44.23;91960.56;5055907;28;20091;-92
2022/12/10 02:15:32;;;;;;;1.10;0.80;;;;;;;13.42;44.07;91968.69;5082852;28;20036;-90
2022/12/10 02:18:03;;;;;;;0.60;0.60;;;;;;;13.43;44.43;91965.44;5072213;28;20056;-89
2022/12/10 02:20:40;;;;;;;1.98;1.25;;;;;;;13.45;44.08;91968.38;5074942;28;20268;-92
2022/12/10 02:23:09;;;;;;;1.40;1.08;;;;;;;13.45;44.19;91962.22;5039069;28;20040;-90
2022/12/10 02:25:46;;;;;;;0.88;0.65;;;;;;;13.44;44.02;91947.91;5054041;28;20524;-94
2022/12/10 02:28:17;;;;;;;1.13;0.80;;;;;;;13.41;43.96;91940.81;5054945;28;20056;-92
2022/12/10 02:30:42;;;;;;;0.77;0.73;;;;;;;13.44;44.29;91937.06;5088624;28;20264;-91
2022/12/10 02:33:08;;;;;;;1.58;1.05;;;;;;;13.42;44.03;91928.72;5037766;28;20485;-92
2022/12/10 02:35:33;;;;;;;0.93;0.65;;;;;;;13.42;44.25;91928.00;5042439;28;20044;-91
2022/12/10 02:38:03;;;;;;;1.00;0.63;;;;;;;13.42;44.23;91930.69;5066492;28;20040;-88
2022/12/10 02:40:32;;;;;;;0.80;0.65;;;;;;;13.41;43.98;91927.25;5071432;28;20127;-91
2022/12/10 02:42:57;;;;;;;1.08;0.85;;;;;;;13.42;44.36;91912.44;5037627;28;20045;-90
2022/12/10 02:45:24;;;;;;;1.60;1.13;;;;;;;13.41;44.01;91902.81;5074767;28;20355;-89
2022/12/10 02:47:50;;;;;;;0.80;0.70;;;;;;;13.43;44.03;91907.72;5074381;28;20028;-88
2022/12/10 02:50:16;;;;;;;1.50;0.80;;;;;;;13.39;44.05;91902.59;5070166;28;20036;-88
2022/12/10 02:52:41;;;;;;;1.67;0.80;;;;;;;13.39;44.14;91916.19;5067273;28;20425;-91
2022/12/10 02:55:10;;;;;;;2.05;1.10;;;;;;;13.41;43.91;91910.97;5071332;28;20059;-92
2022/12/10 02:57:59;;;;;;;1.35;0.80;;;;;;;13.40;44.38;91917.66;5074030;28;20059;-92
2022/12/10 03:00:25;;;;;;;1.30;0.82;;;;;;;13.39;44.25;91916.19;5038782;28;20048;-89
2022/12/10 03:03:04;;;;;;;1.20;0.80;;;;;;;13.38;44.34;91915.44;5073405;28;20079;-92
2022/12/10 03:05:54;;;;;;;0.63;0.63;;;;;;;13.43;44.48;91894.88;5072272;28;20101;-91
2022/12/10 03:08:32;;;;;;;1.13;0.90;;;;;;;13.46;44.28;91895.84;5056664;28;20036;-90
2022/12/10 03:11:05;;;;;;;1.38;0.95;;;;;;;13.38;44.02;91890.28;5056237;28;20036;-92
2022/12/10 03:13:40;;;;;;;1.25;0.70;;;;;;;13.40;44.21;91895.94;5056380;28;20136;-91
2022/12/10 03:16:05;;;;;;;2.05;1.00;;;;;;;13.41;44.37;91908.25;5042511;28;20116;-91
2022/12/10 03:18:31;;;;;;;0.95;0.90;;;;;;;13.40;43.97;91925.06;5052660;28;20372;-91
2022/12/10 03:20:58;;;;;;;0.80;0.80;;;;;;;13.37;44.18;91919.41;5054457;28;20044;-91
2022/12/10 03:23:23;;;;;;;1.52;0.80;;;;;;;13.37;44.08;91913.97;5053780;28;20032;-89
2022/12/10 03:25:49;;;;;;;1.58;0.98;;;;;;;13.37;43.99;91913.25;5053983;28;20462;-91
2022/12/10 03:28:14;;;;;;;0.70;0.70;;;;;;;13.42;44.38;91917.13;5069858;28;20452;-93
2022/12/10 03:30:40;;;;;;;1.13;0.82;;;;;;;13.42;44.31;91911.69;5054410;28;20494;-90
2022/12/10 03:33:05;;;;;;;1.10;0.85;;;;;;;13.41;44.31;91902.09;5067083;28;20512;-91
2022/12/10 03:35:31;;;;;;;1.27;0.90;;;;;;;13.40;44.27;91906.06;5070434;28;20044;-91
2022/12/10 03:37:56;;;;;;;0.70;0.70;;;;;;;13.40;44.12;91916.91;5056934;28;20032;-90
2022/12/10 03:40:22;;;;;;;0.85;0.60;;;;;;;13.38;43.93;91922.84;5036798;28;20473;-93
2022/12/10 03:42:49;;;;;;;0.82;0.65;;;;;;;13.36;44.07;91934.22;5064402;28;20558;-88
2022/12/10 03:45:14;;;;;;;1.30;0.80;;;;;;;13.40;44.27;91941.34;5087116;28;20041;-92
2022/12/10 03:47:40;;;;;;;1.13;0.95;;;;;;;13.37;44.32;91949.25;5044408;28;20090;-93
2022/12/10 03:50:06;;;;;;;1.30;1.02;;;;;;;13.41;44.13;91953.66;5037277;28;20029;-90
2022/12/10 03:52:31;;;;;;;1.00;0.80;;;;;;;13.40;44.48;91950.22;5052863;28;20048;-92
2022/12/10 03:54:57;;;;;;;1.20;0.90;;;;;;;13.41;44.12;91943.53;5052984;28;20086;-91
2022/12/10 03:57:22;;;;;;;1.20;0.70;;;;;;;13.41;43.97;91940.81;5053500;28;20501;-90
2022/12/10 03:59:49;;;;;;;1.10;0.70;;;;;;;13.36;44.31;91933.47;5069564;28;20036;-93
2022/12/10 04:02:14;;;;;;;0.88;0.70;;;;;;;13.38;44.11;91939.13;5050778;28;20489;-92
2022/12/10 04:04:39;;;;;;;0.60;0.50;;;;;;;13.39;44.46;91937.88;5069479;28;20066;-90
2022/12/10 04:07:05;;;;;;;0.90;0.70;;;;;;;13.38;44.14;91931.00;5058782;28;20028;-89
2022/12/10 04:09:30;;;;;;;1.40;0.85;;;;;;;13.40;44.39;91933.19;5056818;28;20035;-88
2022/12/10 04:11:57;;;;;;;1.10;0.90;;;;;;;13.36;44.19;91939.66;5067262;28;20074;-92
2022/12/10 04:17:07;;;;;;;0.93;0.70;;;;;;;13.38;44.35;91934.44;5073114;28;20044;-90
2022/12/10 04:19:33;;;;;;;0.90;0.90;;;;;;;13.36;43.99;91928.06;5050889;28;20041;-87
2022/12/10 04:27:27;;;;;;;1.85;1.00;;;;;;;13.36;44.49;91928.78;5072696;28;20135;-92
2022/12/10 04:29:53;;;;;;;1.23;1.00;;;;;;;13.38;44.12;91939.88;5055494;28;20040;-93
2022/12/10 04:32:19;;;;;;;1.13;0.80;;;;;;;13.36;43.99;91947.78;5051951;28;20086;-87
2022/12/10 04:34:44;;;;;;;1.10;0.75;;;;;;;13.37;44.19;91945.81;5035070;28;20044;-89
2022/12/10 04:37:11;;;;;;;0.95;0.82;;;;;;;13.40;44.19;91958.34;5051802;28;20036;-91
2022/12/10 04:39:36;;;;;;;1.42;0.93;;;;;;;13.37;44.02;91960.13;5039404;28;20117;-88
2022/12/10 04:42:02;;;;;;;0.98;0.70;;;;;;;13.36;44.06;91955.94;5051992;28;20436;-89
2022/12/10 04:44:27;;;;;;;1.50;1.00;;;;;;;13.41;44.25;91946.25;5060543;28;20032;-89
2022/12/10 04:46:52;;;;;;;0.50;0.50;;;;;;;13.38;44.04;91948.00;5068310;28;20045;-90
2022/12/10 04:49:18;;;;;;;1.33;0.98;;;;;;;13.38;44.25;91958.13;5062410;28;20713;-89
2022/12/10 04:51:43;;;;;;;1.52;1.13;;;;;;;13.38;44.60;91956.16;5046581;28;20493;-92
2022/12/10 04:54:09;;;;;;;1.25;0.98;;;;;;;13.41;44.20;91956.38;5052018;28;20272;-91
2022/12/10 04:56:34;;;;;;;1.30;1.10;;;;;;;13.38;44.00;91956.16;5051726;28;20044;-92
2022/12/10 04:59:00;;;;;;;1.27;0.82;;;;;;;13.37;44.17;91948.53;5051121;28;20045;-89
2022/12/10 05:01:26;;;;;;;1.13;0.88;;;;;;;13.37;44.37;91954.69;5051672;28;20036;-90
2022/12/10 05:03:51;;;;;;;1.20;0.80;;;;;;;13.38;44.41;91948.00;5054839;28;20075;-91
2022/12/10 05:06:17;;;;;;;1.35;0.82;;;;;;;13.41;44.19;91942.81;5034274;28;20032;-92
2022/12/10 05:08:42;;;;;;;1.15;1.00;;;;;;;13.35;44.10;91940.16;5035591;28;20067;-92
2022/12/10 05:11:12;;;;;;;1.50;1.35;;;;;;;13.34;44.31;91953.00;5068056;28;20033;-87
2022/12/10 05:13:38;;;;;;;0.98;0.88;;;;;;;13.35;44.34;91945.59;5064619;28;20056;-92
2022/12/10 05:16:05;;;;;;;1.45;1.02;;;;;;;13.37;44.36;91948.53;5071046;28;20040;-91
2022/12/10 05:18:30;;;;;;;1.30;1.02;;;;;;;13.36;44.17;91938.91;5068921;28;20028;-94
2022/12/10 05:20:58;;;;;;;1.45;1.00;;;;;;;13.34;44.07;91947.56;5052254;28;20128;-93
2022/12/10 05:23:30;;;;;;;1.30;0.95;;;;;;;13.38;44.39;91955.41;5062494;28;20033;-92
2022/12/10 05:26:13;;;;;;;1.98;1.25;;;;;;;13.33;44.33;91948.06;5037441;28;20421;-89
2022/12/10 05:28:51;;;;;;;11.55;8.43;;;;;;;13.36;44.59;91952.47;5080313;28;20535;-91
2022/12/10 05:31:19;;;;;;;176.52;117.95;;;;;;;13.41;44.38;91956.38;5080577;28;20097;-89
2022/12/10 05:33:45;;;;;;;5.53;4.13;;;;;;;13.43;44.50;91960.03;5062359;28;20041;-88
2022/12/10 05:36:12;;;;;;;2.42;1.77;;;;;;;13.39;44.22;91959.59;5068716;28;20041;-91
